Airfield :
LOGIN :

Register | Disclaimer

   EN    FR    IT 

 










Legend :    VFR   Marginal VFR   IFR   Intensive IFR   Very Intensive IFR
Visi :
Ceiling :
>= 8 km
>= 3000ft
5 to 8 km
1000 to 3000 ft
1500m to 5 km
500 to 1000 ft
800 to 1500m
200 to 500 ft
< 800m
< 200 ft
Symbols :   Thunderstorms  Fog  Heavy snow  Heavy precipitations  Wind > 20 kt
SIGMETs :     Misc.  Thunderstorms  Icing  Turbulence  Mountain Waves  Volcanic Ashes






- Airport Elevation : 1276 ft
- IATA code : STR


EDDS - Stuttgart

CURRENT METAR :
  • 290650Z AUTO 25004KT 8000 OVC008 06/06 Q1014 NOSIG

EXPIRED METARs :
  • 290620Z AUTO 25005KT 4500 -DZ BR BKN009 OVC014 06/06 Q1014 REDZ NOSIG
  • 290550Z AUTO 25004KT 220V280 9999 OVC009 06/05 Q1014 NOSIG
  • 290520Z AUTO 26005KT 9999 OVC010 06/05 Q1014 NOSIG
  • 290450Z AUTO 24003KT 9999 OVC011 06/05 Q1014
  • 290420Z AUTO 27002KT 9999 OVC013 06/05 Q1013

TAF AMD TAF EDDS
Valid from the 29 at 06:00 until the 30 at 06:00 UTC


290617Z 2906/3006 VRB03KT 9999 BKN012
TEMPO 2906/2912 4000 -DZ BR BKN008
BECMG 2909/2912 32005KT
TEMPO 2920/3006 3000 -RADZ BR BKN004



MET'MAP, your aeronautical weather chart ! - Copyright ORBIFLY December 2007 - Disclaimer

ORBIFLY MET'MAP TEAM :

Programming & Development : Alexandra Zaïnal
Original concept : Baudouin d'Aumeries
Technical & hardware support : Manuel Goepfert
Assistance : Marc-Olivier Méhu




SOURCES & CREDITS :

   NOAA